Latest Weather Observations for Cape Grim

IDT60801

Issued at 3:05 am EDT Friday 31 October 2014 (issued every 30 minutes, with the page automatically refreshed every 10 minutes)

About weather observations | Map of weather stations | Latest weather observations for TAS | Other Formats
Station Details ID: 091331 Name: CAPE GRIM Lat: -40.68 Lon: 144.69 Height: 86.0 m
Data from the previous 72 hours. | See also: Recent months at Cape Grim
Date/Time
EDT
Temp
°C
App
Temp
°C
Dew
Point
Rel
Hum
%
Delta-T
°C
Wind Press
QNH
hPa
Press
MSL
hPa
Rain
since 9 am
mm
Dir
 
Spd
km/h
Gust
km/h
Spd
kts
Gust
kts
31/03:00am 12.5 7.9 8.0 74 2.2 W 22 28 12 15 1009.5 1009.5 0.8
31/02:30am 12.3 7.4 8.4 77 1.9 W 24 32 13 17 1009.7 1009.7 0.8
31/02:00am 12.0 7.6 9.0 82 1.5 W 22 28 12 15 1010.1 1010.1 0.8
31/01:30am 12.1 7.2 9.8 86 1.2 W 26 35 14 19 1010.7 1010.7 0.8
31/01:00am 11.9 7.9 10.3 90 0.8 W 22 30 12 16 1011.1 1011.1 0.6
31/12:30am 11.5 7.0 9.9 90 0.8 W 24 32 13 17 1011.4 1011.4 0.6
31/12:26am 11.5 7.0 9.9 90 0.8 W 24 32 13 17 1011.4 1011.4 0.6
31/12:07am 11.5 6.2 9.8 89 0.9 W 28 39 15 21 1011.6 1011.6 0.6
31/12:00am 12.2 7.3 10.1 87 1.1 W 26 33 14 18 1011.6 1011.6 0.6
 
Date/Time
EDT
Temp
°C
App
Temp
°C
Dew
Point
Rel
Hum
%
Delta-T
°C
Wind Press
QNH
hPa
Press
MSL
hPa
Rain
since 9 am
mm
Dir
 
Spd
km/h
Gust
km/h
Spd
kts
Gust
kts
30/11:30pm 12.4 6.8 10.1 86 1.2 W 30 39 16 21 1011.6 1011.6 0.6
30/11:00pm 12.5 6.9 10.0 85 1.3 W 30 39 16 21 1011.7 1011.7 0.6
30/10:30pm 12.4 7.3 10.5 88 1.0 W 28 33 15 18 1011.9 1011.9 0.6
30/10:00pm 12.3 7.6 10.5 89 0.9 W 26 35 14 19 1012.0 1012.0 0.6
30/09:30pm 12.1 6.9 10.3 89 0.9 W 28 35 15 19 1012.0 1012.0 0.6
30/09:00pm 12.1 7.0 10.5 90 0.8 W 28 37 15 20 1011.9 1011.9 0.6
30/08:30pm 12.2 7.0 10.3 88 1.0 W 28 35 15 19 1011.8 1011.8 0.6
30/08:00pm 12.0 7.2 10.2 89 0.9 W 26 33 14 18 1011.6 1011.6 0.6
30/07:30pm 11.9 8.2 10.1 89 0.9 W 20 28 11 15 1011.4 1011.4 0.6
30/07:00pm 12.2 8.2 10.3 88 1.0 W 22 30 12 16 1011.3 1011.3 0.6
30/06:30pm 12.5 7.7 10.2 86 1.2 W 26 37 14 20 1011.2 1011.2 0.6
30/06:00pm 12.8 8.4 10.5 86 1.2 W 24 39 13 21 1011.3 1011.3 0.6
30/05:30pm 12.7 8.8 10.9 89 0.9 W 22 33 12 18 1011.3 1011.3 0.6
30/05:00pm 12.4 7.7 10.8 90 0.8 W 26 41 14 22 1011.5 1011.5 0.6
30/04:42pm 12.3 7.7 10.9 91 0.7 W 26 37 14 20 1011.6 1011.6 0.6
30/04:30pm 12.2 7.2 10.8 91 0.7 W 28 37 15 20 1011.6 1011.6 0.6
30/04:12pm 11.6 6.0 10.0 90 0.8 W 30 50 16 27 1011.6 1011.6 0.6
30/04:09pm 12.0 6.9 10.6 91 0.7 W 28 39 15 21 1011.7 1011.7 0.6
30/04:00pm 12.0 6.8 10.4 90 0.8 W 28 44 15 24 1011.6 1011.6 0.6
30/03:40pm 12.3 8.0 10.7 90 0.8 W 24 39 13 21 1011.6 1011.6 0.2
30/03:30pm 11.8 5.8 10.2 90 0.8 W 32 46 17 25 1011.7 1011.7 0.2
30/03:00pm 12.5 6.7 9.5 82 1.5 W 30 50 16 27 1011.7 1011.7 0.0
30/02:59pm 12.9 7.1 9.5 80 1.7 W 30 50 16 27 1011.7 1011.7 0.0
30/02:30pm 13.0 8.2 10.4 84 1.4 W 26 35 14 19 1011.8 1011.8 0.0
30/02:02pm 12.4 7.1 10.0 85 1.2 W 28 46 15 25 1011.7 1011.7 0.0
30/02:00pm 12.3 6.6 9.7 84 1.3 W 30 46 16 25 1011.8 1011.8 0.0
30/01:54pm 12.5 6.9 8.8 78 1.9 W 28 46 15 25 1011.8 1011.8 0.0
30/01:30pm 13.9 8.4 9.3 74 2.4 W 28 37 15 20 1011.8 1011.8 0.0
30/01:00pm 13.7 8.6 9.2 74 2.3 W 26 35 14 19 1011.7 1011.7 0.0
30/12:30pm 13.9 9.3 9.7 76 2.2 W 24 39 13 21 1011.8 1011.8 0.0
30/12:00pm 13.4 7.6 9.6 78 2.0 W 30 41 16 22 1011.9 1011.9 0.0
30/11:30am 13.8 9.2 9.5 75 2.2 W 24 33 13 18 1012.2 1012.2 0.0
30/11:00am 13.8 9.7 10.0 78 2.0 W 22 30 12 16 1012.1 1012.1 0.0
30/10:30am 13.3 8.3 9.7 79 1.9 W 26 35 14 19 1012.3 1012.3 0.0
30/10:00am 13.0 8.0 9.4 79 1.8 W 26 35 14 19 1012.3 1012.3 0.0
30/09:30am 12.9 7.0 9.2 78 1.9 W 30 41 16 22 1012.3 1012.3 0.0
30/09:00am 12.6 7.3 9.8 83 1.4 W 28 37 15 20 1012.1 1012.1 1.2
30/08:30am 12.3 7.0 9.7 84 1.3 W 28 43 15 23 1012.0 1012.0 1.2
30/08:00am 12.1 6.8 9.7 85 1.2 W 28 46 15 25 1011.8 1011.8 1.2
30/07:30am 11.4 7.5 9.5 88 1.0 WSW 20 37 11 20 1011.6 1011.6 1.2
30/07:00am 12.5 6.6 9.0 79 1.8 W 30 41 16 22 1011.3 1011.3 1.2
30/06:30am 12.3 7.7 9.7 84 1.3 W 24 37 13 20 1011.2 1011.2 1.2
30/06:00am 11.8 7.1 9.4 85 1.2 W 24 39 13 21 1011.1 1011.1 1.2
30/05:30am 12.4 6.7 8.5 77 1.9 W 28 44 15 24 1011.0 1011.0 1.2
30/05:00am 12.0 7.0 9.6 85 1.2 W 26 37 14 20 1010.7 1010.7 1.2
30/04:30am 11.8 7.2 9.7 87 1.1 W 24 33 13 18 1010.8 1010.8 1.2
30/04:00am 11.4 7.1 9.5 88 1.0 W 22 32 12 17 1010.9 1010.9 1.2
30/03:42am 11.7 6.3 9.6 87 1.1 W 28 46 15 25 1011.3 1011.3 1.0
30/03:30am 11.7 7.4 9.4 86 1.2 W 22 33 12 18 1011.2 1011.2 1.0
30/03:00am 11.7 5.3 8.7 82 1.5 W 32 46 17 25 1011.5 1011.5 1.0
30/02:30am 12.1 7.0 9.1 82 1.5 W 26 37 14 20 1011.4 1011.4 1.0
30/02:00am 12.1 5.8 8.8 80 1.7 W 32 57 17 31 1011.6 1011.6 1.0
30/01:58am 12.2 6.5 8.5 78 1.8 W 28 57 15 31 1011.6 1011.6 1.0
30/01:57am 12.4 7.1 8.5 77 1.9 W 26 57 14 31 1011.6 1011.6 1.0
30/01:30am 12.4 6.8 8.7 78 1.9 W 28 37 15 20 1011.8 1011.8 1.0
30/01:02am 12.3 6.1 9.5 83 1.4 W 32 46 17 25 1011.9 1011.9 1.0
30/01:00am 12.2 6.0 9.4 83 1.4 W 32 46 17 25 1012.0 1012.0 1.0
30/12:53am 11.8 6.5 9.9 88 1.0 W 28 46 15 25 1012.1 1012.1 1.0
30/12:39am 11.4 6.4 9.7 89 0.9 W 26 41 14 22 1012.2 1012.2 1.0
30/12:30am 10.9 5.0 9.0 88 0.9 W 30 44 16 24 1012.3 1012.3 1.0
30/12:00am 11.6 5.4 9.3 86 1.2 W 32 48 17 26 1012.5 1012.5 1.0
 
Date/Time
EDT
Temp
°C
App
Temp
°C
Dew
Point
Rel
Hum
%
Delta-T
°C
Wind Press
QNH
hPa
Press
MSL
hPa
Rain
since 9 am
mm
Dir
 
Spd
km/h
Gust
km/h
Spd
kts
Gust
kts
29/11:42pm 12.3 6.9 9.5 83 1.4 W 28 46 15 25 1012.4 1012.4 1.0
29/11:30pm 12.0 7.3 9.4 84 1.3 W 24 39 13 21 1012.4 1012.4 1.0
29/11:21pm 12.1 6.7 9.5 84 1.3 W 28 46 15 25 1012.5 1012.5 1.0
29/11:00pm 12.0 6.0 10.1 88 1.0 W 32 46 17 25 1012.7 1012.7 1.0
29/10:30pm 12.4 7.7 10.5 88 1.0 W 26 43 14 23 1012.8 1012.9 0.8
29/10:00pm 12.1 7.4 10.7 91 0.7 W 26 41 14 22 1012.9 1013.0 0.8
29/09:55pm 12.1 7.8 10.7 91 0.7 W 24 39 13 21 1012.9 1013.0 0.8
29/09:44pm 12.0 6.8 10.4 90 0.8 W 28 46 15 25 1012.8 1012.9 0.8
29/09:37pm 12.3 6.9 10.9 91 0.7 W 30 41 16 22 1012.8 1012.9 0.8
29/09:30pm 12.2 6.3 10.6 90 0.8 W 32 46 17 25 1012.8 1012.9 0.8
29/09:02pm 12.5 6.5 10.9 90 0.8 W 33 52 18 28 1012.7 1012.7 0.8
29/09:00pm 12.5 6.2 10.9 90 0.8 W 35 52 19 28 1012.7 1012.7 0.8
29/08:30pm 11.8 5.3 10.5 92 0.7 W 35 48 19 26 1012.5 1012.5 0.8
29/08:20pm 11.7 5.2 10.4 92 0.7 W 35 52 19 28 1012.5 1012.5 0.8
29/08:08pm 11.7 5.1 10.1 90 0.8 W 35 50 19 27 1012.6 1012.6 0.6
29/08:05pm 12.3 6.0 10.9 91 0.7 W 35 50 19 27 1012.5 1012.5 0.6
29/08:00pm 12.3 6.0 10.9 91 0.7 W 35 50 19 27 1012.5 1012.5 0.6
29/07:51pm 12.1 4.9 10.5 90 0.8 W 39 56 21 30 1012.5 1012.5 0.4
29/07:30pm 12.9 5.7 10.6 86 1.2 W 39 50 21 27 1012.5 1012.5 0.2
29/07:00pm 12.9 5.3 10.6 86 1.2 W 41 50 22 27 1012.4 1012.4 0.2
29/06:30pm 12.9 4.9 10.6 86 1.2 WNW 43 54 23 29 1012.4 1012.4 0.2
29/06:00pm 13.2 6.2 11.1 87 1.1 WNW 39 48 21 26 1012.7 1012.7 0.2
29/05:30pm 13.4 6.4 11.3 87 1.1 WNW 39 52 21 28 1012.8 1012.9 0.2
29/05:00pm 12.2 4.9 10.3 88 1.0 W 39 52 21 28 1013.1 1013.2 0.2
29/04:47pm 13.0 6.3 9.6 80 1.7 WNW 35 56 19 30 1013.0 1013.1 0.0
29/04:30pm 14.1 7.6 10.5 79 1.9 WNW 35 44 19 24 1013.0 1013.1 0.0
29/04:00pm 14.1 8.1 10.9 81 1.7 WNW 33 41 18 22 1013.3 1013.4 0.0
29/03:30pm 14.7 8.4 11.1 79 1.9 WNW 35 43 19 23 1013.5 1013.6 0.0
29/03:00pm 13.8 6.6 10.4 80 1.8 WNW 39 50 21 27 1013.7 1013.8 0.0
29/02:30pm 13.7 7.0 11.0 84 1.4 WNW 37 46 20 25 1013.8 1013.9 0.0
29/02:12pm 13.0 6.8 9.3 78 1.9 WNW 32 52 17 28 1014.0 1014.1 0.0
29/02:00pm 14.3 8.6 11.1 81 1.7 W 32 39 17 21 1014.0 1014.1 0.0
29/01:37pm 12.8 6.7 9.6 81 1.6 W 32 50 17 27 1014.0 1014.1 0.0
29/01:30pm 12.8 6.7 9.6 81 1.6 W 32 46 17 25 1014.0 1014.1 0.0
29/01:00pm 13.7 7.6 9.7 77 2.1 WNW 32 39 17 21 1014.1 1014.2 0.0
29/12:36pm 13.2 6.4 9.1 76 2.1 W 35 54 19 29 1014.2 1014.3 0.0
29/12:30pm 13.4 6.2 9.1 75 2.2 W 37 46 20 25 1014.2 1014.3 0.0
29/12:00pm 12.6 5.8 9.4 81 1.6 WNW 35 46 19 25 1014.4 1014.5 0.0
29/11:30am 12.6 5.2 8.5 76 2.0 W 37 52 20 28 1014.6 1014.7 0.0
29/11:00am 12.9 6.7 9.2 78 1.9 WNW 32 43 17 23 1014.5 1014.6 0.0
29/10:30am 12.5 5.7 7.8 73 2.3 W 33 54 18 29 1014.6 1014.7 0.0
29/10:00am 13.0 6.4 7.9 71 2.5 W 32 43 17 23 1014.5 1014.6 0.0
29/09:30am 12.1 4.7 8.2 77 1.9 W 37 52 20 28 1014.7 1014.8 0.0
29/09:21am 12.2 6.0 7.7 74 2.2 W 30 48 16 26 1014.6 1014.7 0.0
29/09:00am 12.2 7.0 7.1 71 2.5 W 24 39 13 21 1014.6 1014.7 0.8
29/08:30am 11.9 5.8 6.6 70 2.5 W 28 44 15 24 1014.6 1014.7 0.8
29/08:28am 11.9 5.0 6.6 70 2.5 W 32 50 17 27 1014.6 1014.7 0.8
29/08:00am 11.5 3.9 7.6 77 1.9 W 37 52 20 28 1014.3 1014.4 0.8
29/07:30am 11.7 5.0 7.4 75 2.1 W 32 44 17 24 1014.2 1014.3 0.8
29/07:00am 11.7 6.0 6.6 71 2.4 W 26 41 14 22 1014.2 1014.3 0.8
29/06:30am 11.7 5.7 7.2 74 2.2 W 28 39 15 21 1014.0 1014.1 0.8
29/06:00am 11.7 6.4 6.6 71 2.4 W 24 39 13 21 1013.6 1013.7 0.8
29/05:30am 11.3 5.9 6.4 72 2.3 W 24 43 13 23 1013.5 1013.6 0.8
29/05:21am 11.3 5.1 6.2 71 2.4 W 28 46 15 25 1013.5 1013.6 0.8
29/05:00am 11.3 5.5 6.4 72 2.3 WSW 26 44 14 24 1013.2 1013.3 0.8
29/04:30am 11.2 4.6 5.9 70 2.5 W 30 50 16 27 1013.0 1013.1 0.8
29/04:02am 11.3 5.2 6.4 72 2.3 WSW 28 46 15 25 1012.8 1012.9 0.8
29/04:00am 11.2 4.6 6.1 71 2.4 WSW 30 46 16 25 1012.9 1013.0 0.8
29/03:49am 11.3 5.1 6.0 70 2.5 WSW 28 54 15 29 1012.8 1012.9 0.8
29/03:30am 11.1 6.2 7.0 76 2.0 WSW 22 37 12 20 1012.9 1013.0 0.8
29/03:00am 10.9 4.1 6.8 76 1.9 SW 32 43 17 23 1013.0 1013.1 0.8
29/02:30am 10.9 4.3 6.1 72 2.2 WSW 30 56 16 30 1012.8 1012.9 0.8
29/02:01am 10.8 3.3 6.2 73 2.2 SW 35 54 19 29 1012.8 1012.9 0.8
29/02:00am 10.8 2.9 6.0 72 2.2 SW 37 54 20 29 1012.8 1012.9 0.8
29/01:30am 10.7 2.3 5.7 71 2.3 SW 39 59 21 32 1013.0 1013.1 0.8
29/01:00am 10.8 1.3 5.1 68 2.6 SW 44 63 24 34 1012.8 1012.9 0.8
29/12:30am 10.8 1.6 5.3 69 2.5 SW 43 67 23 36 1012.8 1012.9 0.8
29/12:00am 10.7 1.7 6.3 74 2.1 SW 43 63 23 34 1012.9 1013.0 0.8
 
Date/Time
EDT
Temp
°C
App
Temp
°C
Dew
Point
Rel
Hum
%
Delta-T
°C
Wind Press
QNH
hPa
Press
MSL
hPa
Rain
since 9 am
mm
Dir
 
Spd
km/h
Gust
km/h
Spd
kts
Gust
kts
28/11:30pm 10.5 -0.1 5.3 70 2.4 SW 50 69 27 37 1012.9 1013.0 0.8
28/11:00pm 10.7 2.2 5.0 68 2.6 WSW 39 67 21 36 1012.5 1012.5 0.8
28/10:30pm 10.6 3.3 5.4 70 2.4 WSW 33 61 18 33 1012.7 1012.7 0.8
28/10:00pm 10.6 -0.2 6.0 73 2.1 SW 52 72 28 39 1012.5 1012.5 0.8
28/09:30pm 10.5 3.3 5.7 72 2.2 WSW 33 56 18 30 1012.3 1012.3 0.8
28/09:00pm 9.8 0.5 4.8 71 2.3 WSW 43 61 23 33 1012.0 1012.0 0.8
28/08:56pm 9.3 0.7 4.9 74 2.0 WSW 39 59 21 32 1012.0 1012.0 0.8
28/08:46pm 9.3 -3.2 5.9 79 1.6 SW 61 82 33 44 1011.9 1011.9 0.6
28/08:45pm 9.3 -4.1 5.5 77 1.7 SW 65 82 35 44 1011.9 1011.9 0.6
28/08:44pm 9.6 0.4 5.4 75 1.9 WSW 43 82 23 44 1011.9 1011.9 0.6
28/08:30pm 10.8 1.9 5.3 69 2.5 WSW 41 63 22 34 1011.6 1011.6 0.6
28/08:00pm 10.9 2.4 5.0 67 2.7 WSW 39 69 21 37 1011.1 1011.1 0.6
28/07:30pm 9.7 0.9 5.7 76 1.8 WSW 41 65 22 35 1011.1 1011.1 0.4
28/07:00pm 9.4 -2.0 4.8 73 2.1 WSW 54 87 29 47 1010.4 1010.4 0.2
28/06:30pm 10.6 -1.0 5.8 72 2.2 SW 56 82 30 44 1009.9 1009.9 0.2
28/06:00pm 11.4 1.8 4.6 63 3.1 WSW 44 82 24 44 1009.0 1009.0 0.2
28/05:30pm 11.1 2.5 6.3 72 2.3 WSW 41 67 22 36 1008.7 1008.7 0.2
28/05:00pm 10.7 0.2 5.7 71 2.3 WSW 50 80 27 43 1008.2 1008.2 0.2
28/04:30pm 11.4 1.8 4.2 61 3.2 WSW 44 80 24 43 1007.9 1007.9 0.2
28/04:00pm 11.4 1.1 6.5 72 2.3 W 50 74 27 40 1007.4 1007.4 0.0
28/03:30pm 10.6 0.1 5.4 70 2.4 W 50 80 27 43 1007.0 1007.0 0.0
28/03:00pm 11.5 1.2 4.9 64 3.0 W 48 78 26 42 1006.8 1006.8 0.0
28/02:30pm 11.5 2.0 3.8 59 3.4 WSW 43 83 23 45 1006.5 1006.5 0.0
28/02:00pm 11.1 1.6 6.6 74 2.1 W 46 72 25 39 1006.1 1006.1 0.0
28/01:30pm 11.3 0.8 5.6 68 2.6 W 50 76 27 41 1005.4 1005.5 0.0
28/01:07pm 11.3 1.4 5.0 65 2.9 W 46 83 25 45 1005.3 1005.4 0.0
28/01:00pm 11.0 1.8 5.5 69 2.6 W 43 65 23 35 1005.3 1005.4 0.0
28/12:30pm 11.6 2.3 5.7 67 2.8 WSW 44 76 24 41 1005.0 1005.1 0.0
28/12:00pm 11.6 2.0 6.1 69 2.6 W 46 80 25 43 1004.5 1004.6 0.0
28/11:30am 11.2 2.8 5.7 69 2.6 WSW 39 70 21 38 1004.2 1004.3 0.0
28/11:27am 10.9 2.4 5.2 68 2.6 WSW 39 70 21 38 1004.3 1004.4 0.0
28/11:14am 10.5 -2.2 5.1 69 2.5 SW 61 87 33 47 1004.0 1004.1 0.0
28/11:00am 11.6 2.3 5.0 64 3.0 WSW 43 76 23 41 1003.8 1003.9 0.0
28/10:30am 10.8 1.2 6.2 73 2.2 WSW 46 78 25 42 1003.5 1003.6 0.0
28/10:08am 10.4 -2.0 4.5 67 2.7 W 59 107 32 58 1002.8 1002.8 0.0
28/10:00am 11.5 -0.4 4.5 62 3.2 W 56 83 30 45 1002.6 1002.6 0.0
28/09:30am 11.0 -0.3 5.5 69 2.5 W 54 80 29 43 1002.6 1002.6 0.0
28/09:00am 11.0 -1.3 5.1 67 2.7 W 59 89 32 48 1001.9 1001.9 3.0
28/08:30am 9.8 -1.6 6.7 81 1.5 W 56 95 30 51 1001.6 1001.6 2.8
28/08:00am 11.1 -0.5 6.0 71 2.4 W 56 85 30 46 1001.1 1001.1 2.2
28/07:30am 11.0 1.1 6.6 74 2.1 WSW 48 82 26 44 1000.7 1000.7 2.2
28/07:00am 11.6 1.6 7.9 78 1.8 W 50 82 27 44 1000.0 1000.0 2.2
28/06:45am 11.9 1.5 7.6 75 2.1 W 52 83 28 45 999.7 999.7 2.2
28/06:38am 11.9 3.3 8.0 77 1.9 W 43 61 23 33 999.7 999.7 2.2
28/06:30am 12.4 0.1 7.1 70 2.6 W 61 85 33 46 999.2 999.2 2.2
28/06:00am 11.9 1.2 8.2 78 1.8 W 54 83 29 45 999.2 999.2 2.2
28/05:30am 11.4 1.7 9.0 85 1.2 W 50 70 27 38 999.1 999.1 2.2
28/05:00am 10.5 -1.4 8.8 89 0.8 W 61 93 33 50 998.7 998.7 2.0
28/04:30am 12.6 -0.7 9.2 80 1.7 W 69 93 37 50 998.5 998.5 0.6
28/04:00am 12.0 -1.5 9.0 82 1.5 W 70 91 38 49 998.8 998.8 0.6
28/03:30am 12.6 -1.2 9.4 81 1.6 WNW 72 93 39 50 999.1 999.1 0.6

Other Formats:

Comma delimited format used in spreadsheet applications
http://www.bom.gov.au/fwo/IDT60801/IDT60801.95954.axf

JavaScript Object Notation format (JSON) in row-major order
http://www.bom.gov.au/fwo/IDT60801/IDT60801.95954.json